sensor_id;sensor_type;location;lat;lon;timestamp;pressure;altitude;pressure_sealevel;temperature;humidity
22206;BME280;11272;50.104;8.754;2023-04-27T00:00:23;100787.44;;;9.94;51.92
22206;BME280;11272;50.104;8.754;2023-04-27T00:02:51;100787.47;;;9.92;51.73
22206;BME280;11272;50.104;8.754;2023-04-27T00:05:17;100792.78;;;9.92;51.82
22206;BME280;11272;50.104;8.754;2023-04-27T00:07:44;100780.44;;;9.88;52.00
22206;BME280;11272;50.104;8.754;2023-04-27T00:10:10;100776.94;;;9.86;51.69
22206;BME280;11272;50.104;8.754;2023-04-27T00:12:37;100779.59;;;9.85;51.55
22206;BME280;11272;50.104;8.754;2023-04-27T00:15:04;100776.97;;;9.83;51.83
22206;BME280;11272;50.104;8.754;2023-04-27T00:17:30;100776.13;;;9.81;51.80
22206;BME280;11272;50.104;8.754;2023-04-27T00:19:56;100781.44;;;9.80;51.93
22206;BME280;11272;50.104;8.754;2023-04-27T00:22:22;100777.06;;;9.77;51.79
22206;BME280;11272;50.104;8.754;2023-04-27T00:24:47;100766.47;;;9.76;52.43
22206;BME280;11272;50.104;8.754;2023-04-27T00:27:13;100764.72;;;9.73;51.99
22206;BME280;11272;50.104;8.754;2023-04-27T00:29:39;100770.94;;;9.72;51.75
22206;BME280;11272;50.104;8.754;2023-04-27T00:32:11;100763.00;;;9.69;52.41
22206;BME280;11272;50.104;8.754;2023-04-27T00:34:37;100762.13;;;9.67;51.82
22206;BME280;11272;50.104;8.754;2023-04-27T00:37:03;100761.31;;;9.63;51.54
22206;BME280;11272;50.104;8.754;2023-04-27T00:39:29;100768.44;;;9.60;52.06
22206;BME280;11272;50.104;8.754;2023-04-27T00:41:55;100765.81;;;9.57;52.13
22206;BME280;11272;50.104;8.754;2023-04-27T00:44:22;100765.84;;;9.54;52.24
22206;BME280;11272;50.104;8.754;2023-04-27T00:46:48;100767.63;;;9.52;51.91
22206;BME280;11272;50.104;8.754;2023-04-27T00:49:14;100771.22;;;9.49;51.74
22206;BME280;11272;50.104;8.754;2023-04-27T00:51:40;100769.47;;;9.47;51.84
22206;BME280;11272;50.104;8.754;2023-04-27T00:54:06;100775.66;;;9.46;52.06
22206;BME280;11272;50.104;8.754;2023-04-27T00:56:31;100764.22;;;9.42;52.17
22206;BME280;11272;50.104;8.754;2023-04-27T00:58:57;100768.69;;;9.39;51.62
22206;BME280;11272;50.104;8.754;2023-04-27T01:01:23;100769.59;;;9.36;51.39
22206;BME280;11272;50.104;8.754;2023-04-27T01:03:49;100774.06;;;9.33;52.51
22206;BME280;11272;50.104;8.754;2023-04-27T01:06:15;100778.53;;;9.27;51.88
22206;BME280;11272;50.104;8.754;2023-04-27T01:08:42;100783.88;;;9.21;52.50
22206;BME280;11272;50.104;8.754;2023-04-27T01:11:08;100791.88;;;9.15;52.14
22206;BME280;11272;50.104;8.754;2023-04-27T01:13:34;100793.72;;;9.10;52.49
22206;BME280;11272;50.104;8.754;2023-04-27T01:16:00;100791.09;;;9.04;52.26
22206;BME280;11272;50.104;8.754;2023-04-27T01:18:25;100789.44;;;8.97;52.54
22206;BME280;11272;50.104;8.754;2023-04-27T01:20:51;100787.72;;;8.90;52.74
22206;BME280;11272;50.104;8.754;2023-04-27T01:23:17;100793.03;;;8.87;52.76
22206;BME280;11272;50.104;8.754;2023-04-27T01:25:43;100785.13;;;8.84;52.91
22206;BME280;11272;50.104;8.754;2023-04-27T01:28:09;100787.78;;;8.84;52.81
22206;BME280;11272;50.104;8.754;2023-04-27T01:30:36;100793.06;;;8.85;52.61
22206;BME280;11272;50.104;8.754;2023-04-27T01:33:01;100785.09;;;8.87;52.60
22206;BME280;11272;50.104;8.754;2023-04-27T01:35:27;100786.88;;;8.86;52.70
22206;BME280;11272;50.104;8.754;2023-04-27T01:37:53;100781.59;;;8.82;52.93
22206;BME280;11272;50.104;8.754;2023-04-27T01:40:19;100786.97;;;8.76;53.15
22206;BME280;11272;50.104;8.754;2023-04-27T01:42:46;100786.09;;;8.74;53.22
22206;BME280;11272;50.104;8.754;2023-04-27T01:45:11;100787.03;;;8.70;53.43
22206;BME280;11272;50.104;8.754;2023-04-27T01:47:37;100792.31;;;8.70;53.39
22206;BME280;11272;50.104;8.754;2023-04-27T01:50:03;100795.84;;;8.69;53.54
22206;BME280;11272;50.104;8.754;2023-04-27T01:52:28;100796.78;;;8.65;53.48
22206;BME280;11272;50.104;8.754;2023-04-27T01:54:54;100799.47;;;8.59;53.30
22206;BME280;11272;50.104;8.754;2023-04-27T01:57:21;100803.88;;;8.55;53.33
22206;BME280;11272;50.104;8.754;2023-04-27T01:59:47;100811.84;;;8.52;53.45
22206;BME280;11272;50.104;8.754;2023-04-27T02:02:12;100817.16;;;8.51;53.82
22206;BME280;11272;50.104;8.754;2023-04-27T02:04:41;100820.72;;;8.47;54.08
22206;BME280;11272;50.104;8.754;2023-04-27T02:07:07;100818.94;;;8.45;53.84
22206;BME280;11272;50.104;8.754;2023-04-27T02:09:33;100827.78;;;8.48;54.05
22206;BME280;11272;50.104;8.754;2023-04-27T02:12:01;100829.53;;;8.49;54.19
22206;BME280;11272;50.104;8.754;2023-04-27T02:14:26;100825.13;;;8.49;54.13
22206;BME280;11272;50.104;8.754;2023-04-27T02:16:52;100821.56;;;8.50;53.80
22206;BME280;11272;50.104;8.754;2023-04-27T02:19:17;100810.97;;;8.50;53.88
22206;BME280;11272;50.104;8.754;2023-04-27T02:21:43;100819.81;;;8.49;54.24
22206;BME280;11272;50.104;8.754;2023-04-27T02:24:10;100820.72;;;8.47;54.24
22206;BME280;11272;50.104;8.754;2023-04-27T02:26:35;100821.59;;;8.44;54.26
22206;BME280;11272;50.104;8.754;2023-04-27T02:29:02;100820.75;;;8.43;54.16
22206;BME280;11272;50.104;8.754;2023-04-27T02:31:28;100811.94;;;8.43;54.42
22206;BME280;11272;50.104;8.754;2023-04-27T02:33:53;100820.75;;;8.43;54.25
22206;BME280;11272;50.104;8.754;2023-04-27T02:36:23;100826.88;;;8.45;54.65
22206;BME280;11272;50.104;8.754;2023-04-27T02:38:49;100827.78;;;8.48;54.58
22206;BME280;11272;50.104;8.754;2023-04-27T02:41:14;100829.50;;;8.52;54.35
22206;BME280;11272;50.104;8.754;2023-04-27T02:43:40;100811.81;;;8.57;54.52
22206;BME280;11272;50.104;8.754;2023-04-27T02:46:06;100825.03;;;8.60;54.28
22206;BME280;11272;50.104;8.754;2023-04-27T02:48:31;100825.88;;;8.63;53.97
22206;BME280;11272;50.104;8.754;2023-04-27T02:50:57;100826.75;;;8.67;53.87
22206;BME280;11272;50.104;8.754;2023-04-27T02:53:23;100825.84;;;8.68;54.24
22206;BME280;11272;50.104;8.754;2023-04-27T02:55:48;100825.84;;;8.69;54.33
22206;BME280;11272;50.104;8.754;2023-04-27T02:58:15;100827.63;;;8.69;54.30
22206;BME280;11272;50.104;8.754;2023-04-27T03:00:41;100822.31;;;8.67;53.89
22206;BME280;11272;50.104;8.754;2023-04-27T03:03:08;100818.84;;;8.65;53.85
22206;BME280;11272;50.104;8.754;2023-04-27T03:05:34;100816.22;;;8.59;54.14
22206;BME280;11272;50.104;8.754;2023-04-27T03:08:01;100820.63;;;8.56;53.91
22206;BME280;11272;50.104;8.754;2023-04-27T03:10:27;100809.25;;;8.49;54.21
22206;BME280;11272;50.104;8.754;2023-04-27T03:12:53;100815.44;;;8.42;53.83
22206;BME280;11272;50.104;8.754;2023-04-27T03:15:20;100810.19;;;8.36;54.13
22206;BME280;11272;50.104;8.754;2023-04-27T03:17:47;100813.75;;;8.27;54.54
22206;BME280;11272;50.104;8.754;2023-04-27T03:20:13;100809.38;;;8.22;54.54
22206;BME280;11272;50.104;8.754;2023-04-27T03:22:39;100811.16;;;8.15;54.45
22206;BME280;11272;50.104;8.754;2023-04-27T03:25:05;100812.09;;;8.11;54.89
22206;BME280;11272;50.104;8.754;2023-04-27T03:27:31;100812.97;;;8.10;55.03
22206;BME280;11272;50.104;8.754;2023-04-27T03:29:57;100812.09;;;8.10;55.12
22206;BME280;11272;50.104;8.754;2023-04-27T03:32:23;100814.72;;;8.10;55.22
22206;BME280;11272;50.104;8.754;2023-04-27T03:34:48;100809.44;;;8.10;55.26
22206;BME280;11272;50.104;8.754;2023-04-27T03:37:14;100810.31;;;8.09;55.30
22206;BME280;11272;50.104;8.754;2023-04-27T03:39:39;100807.66;;;8.07;55.20
22206;BME280;11272;50.104;8.754;2023-04-27T03:42:08;100802.41;;;8.04;55.24
22206;BME280;11272;50.104;8.754;2023-04-27T03:44:34;100798.00;;;8.01;55.08
22206;BME280;11272;50.104;8.754;2023-04-27T03:47:01;100796.28;;;7.99;55.45
22206;BME280;11272;50.104;8.754;2023-04-27T03:49:27;100797.16;;;7.98;55.22
22206;BME280;11272;50.104;8.754;2023-04-27T03:51:53;100794.50;;;7.98;55.34
22206;BME280;11272;50.104;8.754;2023-04-27T03:54:18;100799.78;;;7.98;55.37
22206;BME280;11272;50.104;8.754;2023-04-27T03:56:44;100803.31;;;7.97;55.44
22206;BME280;11272;50.104;8.754;2023-04-27T03:59:10;100805.13;;;7.95;55.68
22206;BME280;11272;50.104;8.754;2023-04-27T04:01:38;100807.75;;;7.93;55.37
22206;BME280;11272;50.104;8.754;2023-04-27T04:04:04;100813.91;;;7.91;55.24
22206;BME280;11272;50.104;8.754;2023-04-27T04:06:31;100821.88;;;7.89;55.60
22206;BME280;11272;50.104;8.754;2023-04-27T04:08:56;100824.53;;;7.88;55.52
22206;BME280;11272;50.104;8.754;2023-04-27T04:11:22;100824.53;;;7.88;55.63
22206;BME280;11272;50.104;8.754;2023-04-27T04:13:51;100825.41;;;7.90;55.78
22206;BME280;11272;50.104;8.754;2023-04-27T04:16:17;100830.66;;;7.93;55.68
22206;BME280;11272;50.104;8.754;2023-04-27T04:18:43;100825.34;;;7.96;55.57
22206;BME280;11272;50.104;8.754;2023-04-27T04:21:09;100818.31;;;7.99;56.04
22206;BME280;11272;50.104;8.754;2023-04-27T04:23:37;100824.47;;;8.00;55.72
22206;BME280;11272;50.104;8.754;2023-04-27T04:26:05;100820.03;;;8.02;55.94
22206;BME280;11272;50.104;8.754;2023-04-27T04:28:33;100825.31;;;8.02;55.80
22206;BME280;11272;50.104;8.754;2023-04-27T04:31:02;100822.69;;;8.02;55.90
22206;BME280;11272;50.104;8.754;2023-04-27T04:33:30;100830.63;;;8.02;55.62
22206;BME280;11272;50.104;8.754;2023-04-27T04:35:56;100826.22;;;8.04;55.85
22206;BME280;11272;50.104;8.754;2023-04-27T04:38:23;100827.97;;;8.05;55.67
22206;BME280;11272;50.104;8.754;2023-04-27T04:40:49;100827.94;;;8.08;55.65
22206;BME280;11272;50.104;8.754;2023-04-27T04:43:15;100834.13;;;8.09;55.75
22206;BME280;11272;50.104;8.754;2023-04-27T04:45:41;100836.75;;;8.09;55.91
22206;BME280;11272;50.104;8.754;2023-04-27T04:48:07;100838.56;;;8.07;56.10
22206;BME280;11272;50.104;8.754;2023-04-27T04:50:33;100839.44;;;8.04;56.13
22206;BME280;11272;50.104;8.754;2023-04-27T04:52:59;100850.91;;;8.01;56.17
22206;BME280;11272;50.104;8.754;2023-04-27T04:55:25;100842.97;;;7.97;56.24
22206;BME280;11272;50.104;8.754;2023-04-27T04:57:52;100846.50;;;7.99;56.51
22206;BME280;11272;50.104;8.754;2023-04-27T05:00:19;100848.25;;;8.06;55.85
22206;BME280;11272;50.104;8.754;2023-04-27T05:02:45;100851.72;;;8.14;56.36
22206;BME280;11272;50.104;8.754;2023-04-27T05:05:10;100842.84;;;8.24;56.04
22206;BME280;11272;50.104;8.754;2023-04-27T05:07:36;100842.81;;;8.38;56.34
22206;BME280;11272;50.104;8.754;2023-04-27T05:10:02;100841.84;;;8.50;55.77
22206;BME280;11272;50.104;8.754;2023-04-27T05:12:28;100844.41;;;8.62;55.82
22206;BME280;11272;50.104;8.754;2023-04-27T05:14:54;100843.47;;;8.75;55.50
22206;BME280;11272;50.104;8.754;2023-04-27T05:17:19;100852.16;;;8.89;55.29
22206;BME280;11272;50.104;8.754;2023-04-27T05:19:45;100846.78;;;9.01;55.06
22206;BME280;11272;50.104;8.754;2023-04-27T05:22:10;100846.69;;;9.10;54.61
22206;BME280;11272;50.104;8.754;2023-04-27T05:24:36;100849.22;;;9.22;54.59
22206;BME280;11272;50.104;8.754;2023-04-27T05:27:03;100853.50;;;9.37;54.58
22206;BME280;11272;50.104;8.754;2023-04-27T05:29:28;100851.56;;;9.54;54.46
22206;BME280;11272;50.104;8.754;2023-04-27T05:31:54;100855.88;;;9.66;54.07
22206;BME280;11272;50.104;8.754;2023-04-27T05:34:19;100858.34;;;9.78;53.96
22206;BME280;11272;50.104;8.754;2023-04-27T05:36:45;100856.41;;;9.95;53.91
22206;BME280;11272;50.104;8.754;2023-04-27T05:39:11;100854.38;;;10.15;53.76
22206;BME280;11272;50.104;8.754;2023-04-27T05:41:38;100855.91;;;10.36;53.32
22206;BME280;11272;50.104;8.754;2023-04-27T05:44:05;100857.41;;;10.54;52.87
22206;BME280;11272;50.104;8.754;2023-04-27T05:46:31;100855.38;;;10.71;52.52
22206;BME280;11272;50.104;8.754;2023-04-27T05:48:57;100857.78;;;10.89;52.04
22206;BME280;11272;50.104;8.754;2023-04-27T05:51:23;100857.59;;;11.00;51.76
22206;BME280;11272;50.104;8.754;2023-04-27T05:53:53;100852.09;;;11.11;51.86
22206;BME280;11272;50.104;8.754;2023-04-27T05:56:23;100858.09;;;11.22;51.06
22206;BME280;11272;50.104;8.754;2023-04-27T05:58:51;100865.81;;;11.37;51.36
22206;BME280;11272;50.104;8.754;2023-04-27T06:01:17;100871.75;;;11.53;50.82
22206;BME280;11272;50.104;8.754;2023-04-27T06:03:43;100867.94;;;11.66;50.33
22206;BME280;11272;50.104;8.754;2023-04-27T06:06:08;100865.88;;;11.81;50.22
22206;BME280;11272;50.104;8.754;2023-04-27T06:08:34;100868.19;;;12.00;49.61
22206;BME280;11272;50.104;8.754;2023-04-27T06:11:01;100862.44;;;12.21;49.72
22206;BME280;11272;50.104;8.754;2023-04-27T06:13:27;100869.06;;;12.42;49.08
22206;BME280;11272;50.104;8.754;2023-04-27T06:15:53;100866.72;;;12.66;48.88
22206;BME280;11272;50.104;8.754;2023-04-27T06:18:19;100870.59;;;12.92;48.45
22206;BME280;11272;50.104;8.754;2023-04-27T06:20:44;100873.69;;;13.12;47.87
22206;BME280;11272;50.104;8.754;2023-04-27T06:23:11;100869.72;;;13.28;47.47
22206;BME280;11272;50.104;8.754;2023-04-27T06:25:36;100876.25;;;13.51;46.87
22206;BME280;11272;50.104;8.754;2023-04-27T06:28:04;100873.00;;;13.72;46.39
22206;BME280;11272;50.104;8.754;2023-04-27T06:30:30;100869.66;;;13.96;46.09
22206;BME280;11272;50.104;8.754;2023-04-27T06:32:56;100873.34;;;14.21;45.41
22206;BME280;11272;50.104;8.754;2023-04-27T06:35:21;100883.41;;;14.44;44.84
22206;BME280;11272;50.104;8.754;2023-04-27T06:37:47;100868.50;;;14.65;44.45
22206;BME280;11272;50.104;8.754;2023-04-27T06:40:12;100877.06;;;14.76;44.13
22206;BME280;11272;50.104;8.754;2023-04-27T06:42:38;100877.56;;;14.89;44.00
22206;BME280;11272;50.104;8.754;2023-04-27T06:45:04;100879.69;;;15.05;43.32
22206;BME280;11272;50.104;8.754;2023-04-27T06:47:30;100883.41;;;15.28;42.82
22206;BME280;11272;50.104;8.754;2023-04-27T06:49:55;100883.53;;;15.49;42.57
22206;BME280;11272;50.104;8.754;2023-04-27T06:52:21;100876.50;;;15.73;42.22
22206;BME280;11272;50.104;8.754;2023-04-27T06:54:47;100879.25;;;15.96;41.92
22206;BME280;11272;50.104;8.754;2023-04-27T06:57:13;100874.41;;;16.06;41.66
22206;BME280;11272;50.104;8.754;2023-04-27T06:59:39;100883.13;;;16.13;41.50
22206;BME280;11272;50.104;8.754;2023-04-27T07:02:06;100877.34;;;16.23;40.70
22206;BME280;11272;50.104;8.754;2023-04-27T07:04:32;100875.66;;;16.44;40.43
22206;BME280;11272;50.104;8.754;2023-04-27T07:06:57;100876.16;;;16.54;40.02
22206;BME280;11272;50.104;8.754;2023-04-27T07:09:23;100873.84;;;16.68;39.85
22206;BME280;11272;50.104;8.754;2023-04-27T07:11:48;100874.69;;;16.92;39.67
22206;BME280;11272;50.104;8.754;2023-04-27T07:14:14;100878.16;;;17.15;39.41
22206;BME280;11272;50.104;8.754;2023-04-27T07:16:39;100877.09;;;17.41;39.12
22206;BME280;11272;50.104;8.754;2023-04-27T07:19:08;100867.34;;;17.60;38.45
22206;BME280;11272;50.104;8.754;2023-04-27T07:21:34;100871.63;;;17.85;38.31
22206;BME280;11272;50.104;8.754;2023-04-27T07:23:59;100867.97;;;18.06;37.82
22206;BME280;11272;50.104;8.754;2023-04-27T07:26:25;100871.66;;;18.24;37.63
22206;BME280;11272;50.104;8.754;2023-04-27T07:28:51;100873.78;;;18.36;37.02
22206;BME280;11272;50.104;8.754;2023-04-27T07:31:16;100868.91;;;18.44;36.90
22206;BME280;11272;50.104;8.754;2023-04-27T07:33:42;100864.16;;;18.69;36.42
22206;BME280;11272;50.104;8.754;2023-04-27T07:36:08;100859.41;;;18.93;36.17
22206;BME280;11272;50.104;8.754;2023-04-27T07:38:34;100858.91;;;19.21;35.87
22206;BME280;11272;50.104;8.754;2023-04-27T07:41:00;100860.44;;;19.44;35.47
22206;BME280;11272;50.104;8.754;2023-04-27T07:43:26;100860.69;;;19.73;34.99
22206;BME280;11272;50.104;8.754;2023-04-27T07:45:52;100858.53;;;19.97;34.84
22206;BME280;11272;50.104;8.754;2023-04-27T07:48:18;100858.78;;;20.26;34.26
22206;BME280;11272;50.104;8.754;2023-04-27T07:50:44;100864.84;;;20.46;33.87
22206;BME280;11272;50.104;8.754;2023-04-27T07:53:10;100861.75;;;20.70;33.46
22206;BME280;11272;50.104;8.754;2023-04-27T07:55:36;100856.53;;;20.98;33.36
22206;BME280;11272;50.104;8.754;2023-04-27T07:58:03;100855.47;;;21.16;32.46
22206;BME280;11272;50.104;8.754;2023-04-27T08:00:29;100856.69;;;21.26;32.14
22206;BME280;11272;50.104;8.754;2023-04-27T08:02:55;100851.63;;;21.36;32.21
22206;BME280;11272;50.104;8.754;2023-04-27T08:05:20;100846.75;;;21.57;31.88
22206;BME280;11272;50.104;8.754;2023-04-27T08:07:46;100852.03;;;21.74;31.63
22206;BME280;11272;50.104;8.754;2023-04-27T08:10:12;100841.63;;;21.96;31.40
22206;BME280;11272;50.104;8.754;2023-04-27T08:12:38;100842.91;;;22.19;30.81
22206;BME280;11272;50.104;8.754;2023-04-27T08:15:04;100840.88;;;22.37;30.32
22206;BME280;11272;50.104;8.754;2023-04-27T08:17:30;100836.53;;;22.34;29.77
22206;BME280;11272;50.104;8.754;2023-04-27T08:19:56;100838.75;;;22.13;29.59
22206;BME280;11272;50.104;8.754;2023-04-27T08:22:22;100837.88;;;22.13;29.72
22206;BME280;11272;50.104;8.754;2023-04-27T08:24:47;100836.34;;;22.37;29.37
22206;BME280;11272;50.104;8.754;2023-04-27T08:27:13;100831.97;;;22.63;29.11
22206;BME280;11272;50.104;8.754;2023-04-27T08:29:44;100826.78;;;22.87;29.08
22206;BME280;11272;50.104;8.754;2023-04-27T08:32:11;100828.06;;;23.08;28.75
22206;BME280;11272;50.104;8.754;2023-04-27T08:40:14;100822.44;;;23.90;27.66
22206;BME280;11272;50.104;8.754;2023-04-27T08:42:53;100814.19;;;23.91;27.66
22206;BME280;11272;50.104;8.754;2023-04-27T08:45:19;100819.19;;;23.98;27.67
22206;BME280;11272;50.104;8.754;2023-04-27T08:47:45;100820.06;;;24.23;27.25
22206;BME280;11272;50.104;8.754;2023-04-27T08:50:11;100823.19;;;24.43;27.32
22206;BME280;11272;50.104;8.754;2023-04-27T08:52:37;100825.78;;;24.81;26.79
22206;BME280;11272;50.104;8.754;2023-04-27T08:55:03;100816.47;;;25.08;26.57
22206;BME280;11272;50.104;8.754;2023-04-27T08:57:33;100823.06;;;25.41;26.42
22206;BME280;11272;50.104;8.754;2023-04-27T08:59:59;100816.38;;;25.69;26.18
22206;BME280;11272;50.104;8.754;2023-04-27T09:02:25;100812.34;;;25.85;25.95
22206;BME280;11272;50.104;8.754;2023-04-27T09:04:54;100815.31;;;26.05;25.29
22206;BME280;11272;50.104;8.754;2023-04-27T09:07:20;100818.06;;;26.16;24.78
22206;BME280;11272;50.104;8.754;2023-04-27T09:09:46;100817.72;;;26.31;24.92
22206;BME280;11272;50.104;8.754;2023-04-27T09:12:17;100815.38;;;26.49;24.86
22206;BME280;11272;50.104;8.754;2023-04-27T09:14:54;100814.84;;;26.55;24.34
22206;BME280;11272;50.104;8.754;2023-04-27T09:17:24;100803.41;;;26.72;23.90
22206;BME280;11272;50.104;8.754;2023-04-27T09:19:50;100810.50;;;26.75;23.49
22206;BME280;11272;50.104;8.754;2023-04-27T09:22:16;100804.88;;;26.99;23.62
22206;BME280;11272;50.104;8.754;2023-04-27T09:24:51;100802.94;;;27.21;23.33
22206;BME280;11272;50.104;8.754;2023-04-27T09:27:21;100798.50;;;27.41;22.98
22206;BME280;11272;50.104;8.754;2023-04-27T09:29:47;100793.75;;;27.54;22.48
22206;BME280;11272;50.104;8.754;2023-04-27T09:32:17;100796.44;;;27.34;22.68
22206;BME280;11272;50.104;8.754;2023-04-27T09:34:45;100801.19;;;27.52;22.31
22206;BME280;11272;50.104;8.754;2023-04-27T09:37:11;100798.22;;;27.55;22.04
22206;BME280;11272;50.104;8.754;2023-04-27T09:39:37;100788.22;;;27.86;21.91
22206;BME280;11272;50.104;8.754;2023-04-27T09:42:06;100804.81;;;28.15;21.36
22206;BME280;11272;50.104;8.754;2023-04-27T09:44:33;100797.91;;;28.21;21.42
22206;BME280;11272;50.104;8.754;2023-04-27T09:47:00;100787.56;;;28.15;21.47
22206;BME280;11272;50.104;8.754;2023-04-27T09:49:27;100783.38;;;27.99;21.62
22206;BME280;11272;50.104;8.754;2023-04-27T09:51:56;100787.91;;;28.31;21.49
22206;BME280;11272;50.104;8.754;2023-04-27T09:54:25;100777.31;;;28.47;21.41
22206;BME280;11272;50.104;8.754;2023-04-27T09:57:17;100765.91;;;28.82;21.01
22206;BME280;11272;50.104;8.754;2023-04-27T10:02:23;100771.94;;;28.85;20.64
22206;BME280;11272;50.104;8.754;2023-04-27T10:07:27;100762.91;;;29.14;20.27
22206;BME280;11272;50.104;8.754;2023-04-27T10:09:53;100762.19;;;29.31;19.89
22206;BME280;11272;50.104;8.754;2023-04-27T10:12:27;100755.88;;;29.59;19.99
22206;BME280;11272;50.104;8.754;2023-04-27T10:14:59;100745.84;;;29.78;19.51
22206;BME280;11272;50.104;8.754;2023-04-27T10:19:55;100748.16;;;30.29;19.35
22206;BME280;11272;50.104;8.754;2023-04-27T10:22:22;100755.56;;;30.56;18.91
22206;BME280;11272;50.104;8.754;2023-04-27T10:24:49;100742.84;;;30.72;18.56
22206;BME280;11272;50.104;8.754;2023-04-27T10:27:18;100744.91;;;30.88;18.55
22206;BME280;11272;50.104;8.754;2023-04-27T10:29:50;100748.25;;;30.64;18.39
22206;BME280;11272;50.104;8.754;2023-04-27T10:32:23;100745.91;;;30.69;18.95
22206;BME280;11272;50.104;8.754;2023-04-27T10:35:01;100744.28;;;30.76;18.06
22206;BME280;11272;50.104;8.754;2023-04-27T10:37:37;100738.00;;;30.84;18.33
22206;BME280;11272;50.104;8.754;2023-04-27T10:40:07;100739.88;;;30.66;17.86
22206;BME280;11272;50.104;8.754;2023-04-27T10:42:35;100735.81;;;30.42;18.20
22206;BME280;11272;50.104;8.754;2023-04-27T10:45:00;100734.22;;;30.49;18.02
22206;BME280;11272;50.104;8.754;2023-04-27T10:47:40;100728.06;;;30.65;17.90
22206;BME280;11272;50.104;8.754;2023-04-27T10:50:07;100729.69;;;30.58;18.03
22206;BME280;11272;50.104;8.754;2023-04-27T10:52:33;100737.75;;;30.77;18.19
22206;BME280;11272;50.104;8.754;2023-04-27T10:55:11;100728.47;;;31.06;17.77
22206;BME280;11272;50.104;8.754;2023-04-27T10:57:51;100726.59;;;31.06;17.75
22206;BME280;11272;50.104;8.754;2023-04-27T11:02:48;100732.78;;;31.26;17.44
22206;BME280;11272;50.104;8.754;2023-04-27T11:05:19;100726.03;;;31.38;17.48
22206;BME280;11272;50.104;8.754;2023-04-27T11:07:46;100720.81;;;31.09;17.15
22206;BME280;11272;50.104;8.754;2023-04-27T11:10:17;100714.13;;;31.29;17.22
22206;BME280;11272;50.104;8.754;2023-04-27T11:12:44;100720.53;;;31.38;17.04
22206;BME280;11272;50.104;8.754;2023-04-27T11:15:11;100719.53;;;31.21;16.95
22206;BME280;11272;50.104;8.754;2023-04-27T11:17:37;100714.66;;;31.15;17.24
22206;BME280;11272;50.104;8.754;2023-04-27T11:20:03;100710.31;;;30.77;16.97
22206;BME280;11272;50.104;8.754;2023-04-27T11:22:31;100699.91;;;30.63;17.45
22206;BME280;11272;50.104;8.754;2023-04-27T11:24:57;100705.31;;;30.45;17.35
22206;BME280;11272;50.104;8.754;2023-04-27T11:27:22;100706.06;;;30.20;17.65
22206;BME280;11272;50.104;8.754;2023-04-27T11:29:49;100700.63;;;30.10;17.31
22206;BME280;11272;50.104;8.754;2023-04-27T11:32:21;100698.56;;;29.00;17.80
22206;BME280;11272;50.104;8.754;2023-04-27T11:34:51;100707.09;;;28.47;18.21
22206;BME280;11272;50.104;8.754;2023-04-27T11:37:24;100703.09;;;28.52;18.60
22206;BME280;11272;50.104;8.754;2023-04-27T11:39:50;100698.69;;;29.08;18.26
22206;BME280;11272;50.104;8.754;2023-04-27T11:42:24;100697.97;;;29.16;18.55
22206;BME280;11272;50.104;8.754;2023-04-27T11:44:56;100692.91;;;29.30;18.40
22206;BME280;11272;50.104;8.754;2023-04-27T11:47:24;100691.84;;;29.60;18.44
22206;BME280;11272;50.104;8.754;2023-04-27T11:49:51;100691.47;;;29.92;17.72
22206;BME280;11272;50.104;8.754;2023-04-27T11:52:19;100680.84;;;30.17;17.80
22206;BME280;11272;50.104;8.754;2023-04-27T11:54:49;100671.09;;;30.04;17.62
22206;BME280;11272;50.104;8.754;2023-04-27T11:57:15;100673.78;;;30.14;17.56
22206;BME280;11272;50.104;8.754;2023-04-27T11:59:41;100677.13;;;30.08;17.73
22206;BME280;11272;50.104;8.754;2023-04-27T12:02:07;100671.63;;;30.08;17.59
22206;BME280;11272;50.104;8.754;2023-04-27T12:04:33;100666.13;;;29.90;17.52
22206;BME280;11272;50.104;8.754;2023-04-27T12:07:00;100662.59;;;30.07;17.87
22206;BME280;11272;50.104;8.754;2023-04-27T12:09:26;100671.34;;;30.38;17.46
22206;BME280;11272;50.104;8.754;2023-04-27T12:11:53;100659.84;;;30.52;17.23
22206;BME280;11272;50.104;8.754;2023-04-27T12:14:19;100660.63;;;30.45;17.14
22206;BME280;11272;50.104;8.754;2023-04-27T12:16:44;100665.50;;;29.87;17.32
22206;BME280;11272;50.104;8.754;2023-04-27T12:19:10;100670.75;;;29.80;17.37
22206;BME280;11272;50.104;8.754;2023-04-27T12:21:36;100663.53;;;29.79;17.44
22206;BME280;11272;50.104;8.754;2023-04-27T12:24:02;100660.69;;;29.71;17.72
22206;BME280;11272;50.104;8.754;2023-04-27T12:26:30;100656.44;;;29.59;17.71
22206;BME280;11272;50.104;8.754;2023-04-27T12:28:58;100642.41;;;29.06;17.94
22206;BME280;11272;50.104;8.754;2023-04-27T12:31:24;100649.56;;;28.49;18.14
22206;BME280;11272;50.104;8.754;2023-04-27T12:33:50;100652.16;;;28.31;18.48
22206;BME280;11272;50.104;8.754;2023-04-27T12:36:19;100640.94;;;28.54;18.28
22206;BME280;11272;50.104;8.754;2023-04-27T12:38:47;100636.50;;;28.91;18.33
22206;BME280;11272;50.104;8.754;2023-04-27T12:41:13;100642.06;;;29.18;18.39
22206;BME280;11272;50.104;8.754;2023-04-27T12:43:40;100643.38;;;29.43;18.20
22206;BME280;11272;50.104;8.754;2023-04-27T12:46:08;100633.69;;;29.49;18.15
22206;BME280;11272;50.104;8.754;2023-04-27T12:48:34;100634.84;;;29.46;17.96
22206;BME280;11272;50.104;8.754;2023-04-27T12:51:03;100629.22;;;29.48;18.38
22206;BME280;11272;50.104;8.754;2023-04-27T12:53:28;100628.13;;;29.68;17.81
22206;BME280;11272;50.104;8.754;2023-04-27T12:55:54;100626.59;;;29.93;17.95
22206;BME280;11272;50.104;8.754;2023-04-27T12:58:20;100626.03;;;30.17;18.09
22206;BME280;11272;50.104;8.754;2023-04-27T13:00:46;100632.44;;;30.07;17.80
22206;BME280;11272;50.104;8.754;2023-04-27T13:03:12;100617.91;;;29.97;17.44
22206;BME280;11272;50.104;8.754;2023-04-27T13:05:37;100618.44;;;29.74;17.69
22206;BME280;11272;50.104;8.754;2023-04-27T13:08:04;100616.56;;;29.74;18.03